• Join FlightAware (Why Join?)
  • Login
  • US Flag 
01:19AM EST


 

Airport Tracker/Info


-or-


 

Live Flight TrackerFlight Track Log ✈ SWA3924 ✈ 05-May-2013 ✈ KOAK - KPDX

Flight Track Log - Related Links

Times and Time Zones

All times are in EDT time to prevent confusion due to time zone crossing. See the SWA3924 flight status page for this flight to view local times or setup timezone preferences in your user account.

Time Position Orientation Groundspeed Altitude Reporting Facility
EDT Latitude Longitude Course Direction KTS MPH feet Rate Location/Type
11:16PM 37.6667 -122.1667 358° North 197 227 3,200  Level Northern Cal TRACON
11:16PM 37.6589 -122.1467 116° Southeast 189 217 4,800 2,880 Climbing Oakland Center
11:17PM 37.6397 -122.0825 111° Southeast 228 262 7,800 2,700 Climbing Oakland Center
11:18PM 37.7164 -122.0678 North 300 345 10,300 2,820 Climbing Oakland Center
11:19PM 37.8136 -122.0806 354° North 349 402 13,600 3,180 Climbing Oakland Center
11:20PM 37.9167 -122.0897 356° North 372 428 16,800 3,000 Climbing Oakland Center
11:21PM 38.3605 -122.2481 358° North  Level Estimated
11:21PM 38.0267 -122.1019 355° North 397 457 19,700  Level Oakland Center
11:22PM 38.1636 -122.1153 356° North 411 473 23,300 2,700 Climbing Oakland Center
11:23PM 38.2819 -122.1261 356° North 420 483 25,200 1,920 Climbing Oakland Center
11:24PM 38.4069 -122.1386 356° North 438 504 27,200 1,860 Climbing Oakland Center
11:25PM 38.5386 -122.1511 356° North 464 534 29,100 2,160 Climbing Oakland Center
11:26PM 38.6708 -122.1647 355° North 475 547 31,600 2,340 Climbing Oakland Center
11:27PM 38.8036 -122.1783 355° North 467 537 33,900 1,140 Climbing Oakland Center
11:28PM 38.9297 -122.1914 355° North 454 522 34,000  Climbing Oakland Center
11:29PM 39.0542 -122.2042 355° North 448 516 34,000  Level Oakland Center
11:30PM 39.1800 -122.2150 356° North 451 519 34,000  Level Oakland Center
11:32PM 39.3056 -122.2281 355° North 450 518 34,000  Level Oakland Center
11:33PM 39.4294 -122.2417 355° North 444 511 34,000  Level Oakland Center
11:34PM 39.5467 -122.2531 356° North 446 513 34,000  Level Oakland Center
11:35PM 39.6944 -122.2675 356° North 446 513 34,000  Level Oakland Center
11:36PM 39.8175 -122.2794 356° North 445 512 34,000  Level Oakland Center
11:37PM 39.9403 -122.2925 355° North 443 510 34,000  Level Oakland Center
11:38PM 40.0628 -122.3047 356° North 442 509 34,000  Level Oakland Center
11:39PM 40.1700 -122.3178 355° North 444 511 34,000  Level Oakland Center
11:40PM 40.2981 -122.3292 356° North 448 516 34,000  Level Oakland Center
11:41PM 40.4217 -122.3417 356° North 448 516 34,000  Level Oakland Center
11:42PM 40.5719 -122.3569 356° North 452 520 34,000  Level Oakland Center
11:43PM 40.6967 -122.3681 356° North 450 518 34,000  Level Oakland Center
11:44PM 40.8211 -122.3803 356° North 448 516 34,000  Level Oakland Center
11:45PM 40.9447 -122.3936 355° North 445 512 34,000  Level Oakland Center
11:46PM 41.0653 -122.4042 356° North 436 502 34,000  Level Oakland Center
11:47PM 41.1850 -122.4225 353° North 436 502 34,000  Level Oakland Center
11:48PM 41.3050 -122.4361 355° North 435 501 34,000  Level Oakland Center
11:49PM 41.4000 -122.4458 356° North 430 495 34,000  Level Seattle Center
11:50PM 41.5383 -122.4603 356° North 431 496 34,000  Level Seattle Center
11:51PM 41.6578 -122.4733 355° North 430 495 34,000  Level Seattle Center
11:52PM 41.7783 -122.4839 356° North 432 497 34,000  Level Seattle Center
11:53PM 41.8994 -122.4972 355° North 433 498 34,000  Level Seattle Center
11:54PM 42.0178 -122.5106 355° North 429 494 34,000  Level Seattle Center
11:55PM 42.1336 -122.5253 355° North 418 481 34,000  Level Seattle Center
11:56PM 42.2539 -122.5358 356° North 427 491 34,000  Level Seattle Center
11:57PM 42.3719 -122.5500 355° North 426 490 34,000  Level Seattle Center
11:58PM 42.4892 -122.5628 355° North 422 486 34,000  Level Seattle Center
11:59PM 42.6075 -122.5753 356° North 425 489 34,000  Level Seattle Center
12:00AM 42.7242 -122.5906 355° North 421 484 34,000  Level Seattle Center
12:01AM 42.8272 -122.6028 355° North 415 478 34,000  Level Seattle Center
12:02AM 42.9428 -122.6153 355° North 415 478 34,000  Level Seattle Center
12:03AM 43.0603 -122.6283 355° North 423 487 34,000  Level Seattle Center
12:04AM 43.1808 -122.6422 355° North 434 499 34,000  Level Seattle Center
12:05AM 43.3244 -122.6575 356° North 430 495 34,000  Level Seattle Center
12:06AM 43.4444 -122.6703 356° North 431 496 34,000  Level Seattle Center
12:07AM 43.5631 -122.6853 355° North 427 491 34,000  Level Seattle Center
12:08AM 43.6817 -122.6972 356° North 427 491 34,000  Level Seattle Center
12:09AM 43.7994 -122.7106 355° North 425 489 34,000  Level Seattle Center
12:10AM 43.9158 -122.7247 355° North 421 484 34,000 -1,020 Level Seattle Center
12:11AM 44.0258 -122.7381 355° North 406 467 32,000 -2,280 Descending Seattle Center
12:12AM 44.1350 -122.7494 356° North 398 458 29,500 -2,340 Descending Seattle Center
12:13AM 44.2406 -122.7419 North 381 438 27,300 -2,040 Descending Seattle Center
12:14AM 44.3564 -122.7331 North 390 449 25,400 -2,100 Descending Seattle Center
12:15AM 44.4664 -122.7208 North 397 457 23,100 -2,340 Descending Seattle Center
12:16AM 44.5781 -122.7108 North 401 461 20,700 -2,340 Descending Seattle Center
12:17AM 44.6839 -122.7008 North 386 444 18,400 -2,400 Descending Seattle Center
12:18AM 44.7861 -122.6903 North 374 430 15,900 -2,580 Descending Seattle Center
12:18AM 44.8339 -122.6853 North 363 418 14,800 -2,340 Descending Seattle Center
12:19AM 44.8853 -122.6800 North 363 418 13,600 -2,400 Descending Seattle Center
12:19AM 44.9331 -122.6728 North 357 411 12,400 -2,280 Descending Seattle Center
12:20AM 44.9836 -122.6714 North 358 412 11,300 -1,500 Descending Seattle Center
12:20AM 45.0292 -122.6647 North 348 400 10,900 -840 Descending Seattle Center
12:21AM 45.0739 -122.6619 North 335 386 10,500 -900 Descending Seattle Center
12:21AM 45.1142 -122.6578 North 297 342 10,000 -1,200 Descending Seattle Center
12:22AM 45.1558 -122.6531 North 307 353 9,300 -1,320 Descending Seattle Center
12:22AM 45.1950 -122.6494 North 287 330 8,700 -1,500 Descending Seattle Center
12:23AM 45.2342 -122.6453 North 289 333 7,800 -1,740 Descending Seattle Center
12:23AM 45.2833 -122.6689 341° North 291 335 6,800 -1,500 Descending Seattle Center
12:24AM 45.3075 -122.6861 333° Northwest 293 337 6,300 -1,320 Descending Seattle Center
12:24AM 45.3486 -122.7131 335° Northwest 286 329 5,600 -1,320 Descending Seattle Center
12:25AM 45.3797 -122.7333 335° Northwest 290 334 5,000 -600 Descending Seattle Center
12:25AM 45.4197 -122.7644 331° Northwest 282 325 5,000 -300 Level Seattle Center
12:26AM 45.4486 -122.7842 334° Northwest 283 326 4,700 -540 Descending Seattle Center
12:26AM 45.4853 -122.8117 332° Northwest 255 293 4,500 -840 Descending Seattle Center
12:27AM 45.5222 -122.8386 333° Northwest 258 297 3,900 -900 Descending Seattle Center
12:27AM 45.5394 -122.8328 13° North 211 243 3,700 -900 Descending Seattle Center
12:28AM 45.5753 -122.8117 22° Northeast 213 245 3,000 -900 Descending Seattle Center
12:28AM 45.5892 -122.8003 30° Northeast 185 213 2,800 -540 Descending Seattle Center
12:29AM 45.6181 -122.7825 23° Northeast 178 205 2,500 -540 Descending Seattle Center
12:29AM 45.6300 -122.7653 45° Northeast 149 171 2,200 -720 Descending Seattle Center
12:30AM 45.6406 -122.7322 65° Northeast 159 183 1,800 -540 Descending Seattle Center
12:30AM 45.6350 -122.7047 106° East 156 180 1,700 -600 Descending Seattle Center
12:31AM 45.6250 -122.6747 115° Southeast 154 177 1,200 -780 Descending Seattle Center
12:31AM 45.6172 -122.6594 126° Southeast 141 162 1,000 -720 Descending Seattle Center
12:32AM 45.6050 -122.6244 117° Southeast 153 176 500 -720 Descending Seattle Center
12:32AM 45.5989 -122.6114 124° Southeast 129 148 300 -720 Descending Seattle Center
12:34AM 45.5887 -122.5969 69° East  Level Estimated